sensor_id;sensor_type;location;lat;lon;timestamp;temperature;humidity
68051;DHT22;54839;51.364;7.246;2023-06-24T00:01:52;17.00;99.90
68051;DHT22;54839;51.364;7.246;2023-06-24T00:04:18;16.90;99.90
68051;DHT22;54839;51.364;7.246;2023-06-24T00:06:44;17.00;99.90
68051;DHT22;54839;51.364;7.246;2023-06-24T00:09:10;17.10;99.90
68051;DHT22;54839;51.364;7.246;2023-06-24T00:11:36;17.00;99.90
68051;DHT22;54839;51.364;7.246;2023-06-24T00:14:01;17.00;99.90
68051;DHT22;54839;51.364;7.246;2023-06-24T00:16:27;17.20;99.90
68051;DHT22;54839;51.364;7.246;2023-06-24T00:18:54;17.50;99.90
68051;DHT22;54839;51.364;7.246;2023-06-24T00:21:20;17.70;99.90
68051;DHT22;54839;51.364;7.246;2023-06-24T00:23:46;17.50;99.90
68051;DHT22;54839;51.364;7.246;2023-06-24T00:26:15;17.30;99.90
68051;DHT22;54839;51.364;7.246;2023-06-24T00:28:41;17.00;99.90
68051;DHT22;54839;51.364;7.246;2023-06-24T00:31:07;16.90;99.90
68051;DHT22;54839;51.364;7.246;2023-06-24T00:33:33;16.80;99.90
68051;DHT22;54839;51.364;7.246;2023-06-24T00:36:01;16.80;99.90
68051;DHT22;54839;51.364;7.246;2023-06-24T00:38:27;16.80;99.90
68051;DHT22;54839;51.364;7.246;2023-06-24T00:40:58;16.70;99.90
68051;DHT22;54839;51.364;7.246;2023-06-24T00:43:24;16.50;99.90
68051;DHT22;54839;51.364;7.246;2023-06-24T00:45:50;16.50;99.90
68051;DHT22;54839;51.364;7.246;2023-06-24T00:48:16;16.40;99.90
68051;DHT22;54839;51.364;7.246;2023-06-24T00:50:42;16.40;99.90
68051;DHT22;54839;51.364;7.246;2023-06-24T00:53:11;16.40;99.90
68051;DHT22;54839;51.364;7.246;2023-06-24T00:55:37;16.50;99.90
68051;DHT22;54839;51.364;7.246;2023-06-24T00:58:04;16.60;99.90
68051;DHT22;54839;51.364;7.246;2023-06-24T01:00:30;16.70;99.90
68051;DHT22;54839;51.364;7.246;2023-06-24T01:02:58;16.60;99.90
68051;DHT22;54839;51.364;7.246;2023-06-24T01:05:25;16.40;99.90
68051;DHT22;54839;51.364;7.246;2023-06-24T01:07:51;16.40;99.90
68051;DHT22;54839;51.364;7.246;2023-06-24T01:10:22;16.40;99.90
68051;DHT22;54839;51.364;7.246;2023-06-24T01:12:49;16.30;99.90
68051;DHT22;54839;51.364;7.246;2023-06-24T01:15:15;16.20;99.90
68051;DHT22;54839;51.364;7.246;2023-06-24T01:18:07;16.20;99.90
68051;DHT22;54839;51.364;7.246;2023-06-24T01:20:52;16.20;99.90
68051;DHT22;54839;51.364;7.246;2023-06-24T01:26:45;16.20;99.90
68051;DHT22;54839;51.364;7.246;2023-06-24T01:32:16;16.20;99.90
68051;DHT22;54839;51.364;7.246;2023-06-24T01:34:55;16.10;99.90
68051;DHT22;54839;51.364;7.246;2023-06-24T01:37:32;16.10;99.90
68051;DHT22;54839;51.364;7.246;2023-06-24T01:40:22;16.20;99.90
68051;DHT22;54839;51.364;7.246;2023-06-24T01:42:50;16.10;99.90
68051;DHT22;54839;51.364;7.246;2023-06-24T01:45:27;16.10;99.90
68051;DHT22;54839;51.364;7.246;2023-06-24T01:48:02;16.00;99.90
68051;DHT22;54839;51.364;7.246;2023-06-24T01:50:33;16.10;99.90
68051;DHT22;54839;51.364;7.246;2023-06-24T01:53:02;16.10;99.90
68051;DHT22;54839;51.364;7.246;2023-06-24T01:55:32;16.00;99.90
68051;DHT22;54839;51.364;7.246;2023-06-24T01:57:58;15.80;99.90
68051;DHT22;54839;51.364;7.246;2023-06-24T02:00:26;15.80;99.90
68051;DHT22;54839;51.364;7.246;2023-06-24T02:02:53;15.90;99.90
68051;DHT22;54839;51.364;7.246;2023-06-24T02:05:21;16.00;99.90
68051;DHT22;54839;51.364;7.246;2023-06-24T02:07:48;15.90;99.90
68051;DHT22;54839;51.364;7.246;2023-06-24T02:10:15;15.70;99.90
68051;DHT22;54839;51.364;7.246;2023-06-24T02:12:42;15.70;99.90
68051;DHT22;54839;51.364;7.246;2023-06-24T02:15:09;15.80;99.90
68051;DHT22;54839;51.364;7.246;2023-06-24T02:17:36;16.00;99.90
68051;DHT22;54839;51.364;7.246;2023-06-24T02:20:05;15.90;99.90
68051;DHT22;54839;51.364;7.246;2023-06-24T02:22:32;16.00;99.90
68051;DHT22;54839;51.364;7.246;2023-06-24T02:24:58;16.20;99.90
68051;DHT22;54839;51.364;7.246;2023-06-24T02:27:24;16.30;99.90
68051;DHT22;54839;51.364;7.246;2023-06-24T02:29:51;16.00;99.90
68051;DHT22;54839;51.364;7.246;2023-06-24T02:32:18;15.90;99.90
68051;DHT22;54839;51.364;7.246;2023-06-24T02:34:43;15.80;99.90
68051;DHT22;54839;51.364;7.246;2023-06-24T02:37:09;16.00;99.90
68051;DHT22;54839;51.364;7.246;2023-06-24T02:39:35;16.00;99.90
68051;DHT22;54839;51.364;7.246;2023-06-24T02:42:04;15.90;99.90
68051;DHT22;54839;51.364;7.246;2023-06-24T02:44:30;15.90;99.90
68051;DHT22;54839;51.364;7.246;2023-06-24T02:46:57;15.90;99.90
68051;DHT22;54839;51.364;7.246;2023-06-24T02:49:23;15.80;99.90
68051;DHT22;54839;51.364;7.246;2023-06-24T02:51:49;16.00;99.90
68051;DHT22;54839;51.364;7.246;2023-06-24T02:54:14;15.90;99.90
68051;DHT22;54839;51.364;7.246;2023-06-24T02:56:41;16.00;99.90
68051;DHT22;54839;51.364;7.246;2023-06-24T02:59:10;15.80;99.90
68051;DHT22;54839;51.364;7.246;2023-06-24T03:01:36;15.90;99.90
68051;DHT22;54839;51.364;7.246;2023-06-24T03:04:05;15.80;99.90
68051;DHT22;54839;51.364;7.246;2023-06-24T03:06:32;15.80;99.90
68051;DHT22;54839;51.364;7.246;2023-06-24T03:08:58;15.90;99.90
68051;DHT22;54839;51.364;7.246;2023-06-24T03:11:25;15.80;99.90
68051;DHT22;54839;51.364;7.246;2023-06-24T03:13:51;15.70;99.90
68051;DHT22;54839;51.364;7.246;2023-06-24T03:16:17;15.80;99.90
68051;DHT22;54839;51.364;7.246;2023-06-24T03:18:43;15.60;99.90
68051;DHT22;54839;51.364;7.246;2023-06-24T03:21:09;15.70;99.90
68051;DHT22;54839;51.364;7.246;2023-06-24T03:23:35;16.00;99.90
68051;DHT22;54839;51.364;7.246;2023-06-24T03:26:01;15.90;99.90
68051;DHT22;54839;51.364;7.246;2023-06-24T03:28:29;16.00;99.90
68051;DHT22;54839;51.364;7.246;2023-06-24T03:30:55;16.00;99.90
68051;DHT22;54839;51.364;7.246;2023-06-24T03:33:21;16.20;99.90
68051;DHT22;54839;51.364;7.246;2023-06-24T03:35:47;16.30;99.90
68051;DHT22;54839;51.364;7.246;2023-06-24T03:38:12;16.30;99.90
68051;DHT22;54839;51.364;7.246;2023-06-24T03:40:38;16.40;99.90
68051;DHT22;54839;51.364;7.246;2023-06-24T03:43:03;16.40;99.90
68051;DHT22;54839;51.364;7.246;2023-06-24T03:45:29;16.30;99.90
68051;DHT22;54839;51.364;7.246;2023-06-24T03:47:55;16.30;99.90
68051;DHT22;54839;51.364;7.246;2023-06-24T03:50:20;16.30;99.90
68051;DHT22;54839;51.364;7.246;2023-06-24T03:52:46;16.30;99.90
68051;DHT22;54839;51.364;7.246;2023-06-24T03:55:12;16.60;99.90
68051;DHT22;54839;51.364;7.246;2023-06-24T03:57:38;16.50;99.90
68051;DHT22;54839;51.364;7.246;2023-06-24T04:00:04;16.80;99.90
68051;DHT22;54839;51.364;7.246;2023-06-24T04:02:43;16.80;99.90
68051;DHT22;54839;51.364;7.246;2023-06-24T04:05:09;17.00;99.90
68051;DHT22;54839;51.364;7.246;2023-06-24T04:07:35;17.20;99.90
68051;DHT22;54839;51.364;7.246;2023-06-24T04:10:02;17.10;99.90
68051;DHT22;54839;51.364;7.246;2023-06-24T04:12:27;17.10;99.90
68051;DHT22;54839;51.364;7.246;2023-06-24T04:14:53;17.10;99.90
68051;DHT22;54839;51.364;7.246;2023-06-24T04:17:19;17.20;99.90
68051;DHT22;54839;51.364;7.246;2023-06-24T04:19:44;17.40;99.90
68051;DHT22;54839;51.364;7.246;2023-06-24T04:22:10;17.70;99.90
68051;DHT22;54839;51.364;7.246;2023-06-24T04:24:36;17.90;99.90
68051;DHT22;54839;51.364;7.246;2023-06-24T04:27:02;17.80;99.90
68051;DHT22;54839;51.364;7.246;2023-06-24T04:29:27;18.00;99.90
68051;DHT22;54839;51.364;7.246;2023-06-24T04:31:53;18.00;99.90
68051;DHT22;54839;51.364;7.246;2023-06-24T04:34:18;18.10;99.90
68051;DHT22;54839;51.364;7.246;2023-06-24T04:36:44;18.40;99.90
68051;DHT22;54839;51.364;7.246;2023-06-24T04:39:10;18.50;99.90
68051;DHT22;54839;51.364;7.246;2023-06-24T04:41:35;18.60;99.90
68051;DHT22;54839;51.364;7.246;2023-06-24T04:44:01;18.70;99.90
68051;DHT22;54839;51.364;7.246;2023-06-24T04:46:27;18.80;99.90
68051;DHT22;54839;51.364;7.246;2023-06-24T04:48:52;18.90;99.90
68051;DHT22;54839;51.364;7.246;2023-06-24T04:51:18;19.00;99.90
68051;DHT22;54839;51.364;7.246;2023-06-24T04:53:43;19.20;99.90
68051;DHT22;54839;51.364;7.246;2023-06-24T04:56:09;19.40;99.90
68051;DHT22;54839;51.364;7.246;2023-06-24T04:58:35;19.50;99.90
68051;DHT22;54839;51.364;7.246;2023-06-24T05:01:00;19.40;99.90
68051;DHT22;54839;51.364;7.246;2023-06-24T05:03:26;19.40;99.90
68051;DHT22;54839;51.364;7.246;2023-06-24T05:05:51;19.40;99.90
68051;DHT22;54839;51.364;7.246;2023-06-24T05:08:17;19.40;99.90
68051;DHT22;54839;51.364;7.246;2023-06-24T05:10:42;19.60;99.90
68051;DHT22;54839;51.364;7.246;2023-06-24T05:13:08;19.60;99.90
68051;DHT22;54839;51.364;7.246;2023-06-24T05:15:34;19.50;99.90
68051;DHT22;54839;51.364;7.246;2023-06-24T05:17:59;19.90;99.90
68051;DHT22;54839;51.364;7.246;2023-06-24T05:20:25;19.80;99.90
68051;DHT22;54839;51.364;7.246;2023-06-24T05:22:50;20.00;99.90
68051;DHT22;54839;51.364;7.246;2023-06-24T05:25:16;19.80;99.90
68051;DHT22;54839;51.364;7.246;2023-06-24T05:27:42;19.90;99.90
68051;DHT22;54839;51.364;7.246;2023-06-24T05:30:10;20.00;99.90
68051;DHT22;54839;51.364;7.246;2023-06-24T05:32:36;20.10;99.90
68051;DHT22;54839;51.364;7.246;2023-06-24T05:35:01;20.10;99.90
68051;DHT22;54839;51.364;7.246;2023-06-24T05:37:27;20.00;99.90
68051;DHT22;54839;51.364;7.246;2023-06-24T05:39:52;19.90;99.90
68051;DHT22;54839;51.364;7.246;2023-06-24T05:42:18;20.00;99.90
68051;DHT22;54839;51.364;7.246;2023-06-24T05:44:44;19.90;99.90
68051;DHT22;54839;51.364;7.246;2023-06-24T05:47:09;19.90;99.90
68051;DHT22;54839;51.364;7.246;2023-06-24T05:49:35;19.90;99.90
68051;DHT22;54839;51.364;7.246;2023-06-24T05:52:01;19.80;99.90
68051;DHT22;54839;51.364;7.246;2023-06-24T05:54:26;19.80;99.90
68051;DHT22;54839;51.364;7.246;2023-06-24T05:56:52;19.90;99.90
68051;DHT22;54839;51.364;7.246;2023-06-24T05:59:18;19.80;99.90
68051;DHT22;54839;51.364;7.246;2023-06-24T06:01:43;19.70;99.90
68051;DHT22;54839;51.364;7.246;2023-06-24T06:04:09;19.90;99.90
68051;DHT22;54839;51.364;7.246;2023-06-24T06:06:34;19.90;99.90
68051;DHT22;54839;51.364;7.246;2023-06-24T06:09:00;20.00;99.90
68051;DHT22;54839;51.364;7.246;2023-06-24T06:11:26;20.00;99.90
68051;DHT22;54839;51.364;7.246;2023-06-24T06:13:51;20.10;99.90
68051;DHT22;54839;51.364;7.246;2023-06-24T06:16:18;20.40;99.90
68051;DHT22;54839;51.364;7.246;2023-06-24T06:18:43;20.60;99.90
68051;DHT22;54839;51.364;7.246;2023-06-24T06:21:09;20.70;99.90
68051;DHT22;54839;51.364;7.246;2023-06-24T06:23:34;21.10;99.90
68051;DHT22;54839;51.364;7.246;2023-06-24T06:26:00;21.40;99.90
68051;DHT22;54839;51.364;7.246;2023-06-24T06:28:26;21.20;99.90
68051;DHT22;54839;51.364;7.246;2023-06-24T06:30:51;21.40;99.90
68051;DHT22;54839;51.364;7.246;2023-06-24T06:33:17;21.60;99.90
68051;DHT22;54839;51.364;7.246;2023-06-24T06:35:43;21.70;99.90
68051;DHT22;54839;51.364;7.246;2023-06-24T06:38:08;21.90;99.90
68051;DHT22;54839;51.364;7.246;2023-06-24T06:40:34;21.90;99.90
68051;DHT22;54839;51.364;7.246;2023-06-24T06:43:00;22.00;99.90
68051;DHT22;54839;51.364;7.246;2023-06-24T06:45:26;21.90;99.90
68051;DHT22;54839;51.364;7.246;2023-06-24T06:47:51;21.70;99.90
68051;DHT22;54839;51.364;7.246;2023-06-24T06:50:17;21.80;99.90
68051;DHT22;54839;51.364;7.246;2023-06-24T06:52:43;22.00;99.90
68051;DHT22;54839;51.364;7.246;2023-06-24T06:55:09;22.10;99.90
68051;DHT22;54839;51.364;7.246;2023-06-24T06:57:35;21.90;99.90
68051;DHT22;54839;51.364;7.246;2023-06-24T07:00:01;21.70;99.90
68051;DHT22;54839;51.364;7.246;2023-06-24T07:02:26;21.50;99.90
68051;DHT22;54839;51.364;7.246;2023-06-24T07:04:52;21.70;99.90
68051;DHT22;54839;51.364;7.246;2023-06-24T07:07:17;21.80;99.90
68051;DHT22;54839;51.364;7.246;2023-06-24T07:09:43;21.70;99.90
68051;DHT22;54839;51.364;7.246;2023-06-24T07:12:09;21.50;99.90
68051;DHT22;54839;51.364;7.246;2023-06-24T07:14:35;21.40;99.90
68051;DHT22;54839;51.364;7.246;2023-06-24T07:17:00;21.50;99.90
68051;DHT22;54839;51.364;7.246;2023-06-24T07:19:26;21.40;99.90
68051;DHT22;54839;51.364;7.246;2023-06-24T07:21:52;21.30;99.90
68051;DHT22;54839;51.364;7.246;2023-06-24T07:24:17;21.40;99.90
68051;DHT22;54839;51.364;7.246;2023-06-24T07:26:43;21.70;99.90
68051;DHT22;54839;51.364;7.246;2023-06-24T07:29:09;21.90;99.90
68051;DHT22;54839;51.364;7.246;2023-06-24T07:31:35;22.00;99.90
68051;DHT22;54839;51.364;7.246;2023-06-24T07:34:01;22.10;99.90
68051;DHT22;54839;51.364;7.246;2023-06-24T07:36:26;22.10;99.90
68051;DHT22;54839;51.364;7.246;2023-06-24T07:38:52;22.10;99.90
68051;DHT22;54839;51.364;7.246;2023-06-24T07:41:17;22.10;99.90
68051;DHT22;54839;51.364;7.246;2023-06-24T07:43:43;21.90;99.90
68051;DHT22;54839;51.364;7.246;2023-06-24T07:46:09;22.00;99.90
68051;DHT22;54839;51.364;7.246;2023-06-24T07:48:34;22.30;99.90
68051;DHT22;54839;51.364;7.246;2023-06-24T07:51:00;22.50;99.90
68051;DHT22;54839;51.364;7.246;2023-06-24T07:53:26;22.50;99.90
68051;DHT22;54839;51.364;7.246;2023-06-24T07:55:51;22.80;99.90
68051;DHT22;54839;51.364;7.246;2023-06-24T07:58:17;23.00;99.90
68051;DHT22;54839;51.364;7.246;2023-06-24T08:00:44;23.10;99.90
68051;DHT22;54839;51.364;7.246;2023-06-24T08:03:10;22.90;99.90
68051;DHT22;54839;51.364;7.246;2023-06-24T08:05:36;22.70;99.90
68051;DHT22;54839;51.364;7.246;2023-06-24T08:08:02;22.40;99.90
68051;DHT22;54839;51.364;7.246;2023-06-24T08:10:28;22.30;99.90
68051;DHT22;54839;51.364;7.246;2023-06-24T08:12:53;22.40;99.90
68051;DHT22;54839;51.364;7.246;2023-06-24T08:15:19;22.60;99.90
68051;DHT22;54839;51.364;7.246;2023-06-24T08:17:53;22.50;99.90
68051;DHT22;54839;51.364;7.246;2023-06-24T08:20:22;22.60;99.90
68051;DHT22;54839;51.364;7.246;2023-06-24T08:22:48;22.40;99.90
68051;DHT22;54839;51.364;7.246;2023-06-24T08:25:14;22.60;99.90
68051;DHT22;54839;51.364;7.246;2023-06-24T08:27:39;22.70;99.90
68051;DHT22;54839;51.364;7.246;2023-06-24T08:30:06;22.70;99.90
68051;DHT22;54839;51.364;7.246;2023-06-24T08:32:32;22.60;99.90
68051;DHT22;54839;51.364;7.246;2023-06-24T08:34:57;22.90;99.90
68051;DHT22;54839;51.364;7.246;2023-06-24T08:37:23;22.90;99.90
68051;DHT22;54839;51.364;7.246;2023-06-24T08:39:49;22.80;99.90
68051;DHT22;54839;51.364;7.246;2023-06-24T08:42:14;22.80;99.90
68051;DHT22;54839;51.364;7.246;2023-06-24T08:44:40;22.60;99.90
68051;DHT22;54839;51.364;7.246;2023-06-24T08:47:06;22.70;99.90
68051;DHT22;54839;51.364;7.246;2023-06-24T08:49:32;22.90;99.90
68051;DHT22;54839;51.364;7.246;2023-06-24T08:52:13;22.90;99.90
68051;DHT22;54839;51.364;7.246;2023-06-24T08:54:40;23.20;99.90
68051;DHT22;54839;51.364;7.246;2023-06-24T08:57:06;23.50;99.90
68051;DHT22;54839;51.364;7.246;2023-06-24T08:59:34;23.40;99.90
68051;DHT22;54839;51.364;7.246;2023-06-24T09:02:00;23.60;99.90
68051;DHT22;54839;51.364;7.246;2023-06-24T09:04:26;23.30;99.90
68051;DHT22;54839;51.364;7.246;2023-06-24T09:06:52;23.50;99.90
68051;DHT22;54839;51.364;7.246;2023-06-24T09:09:21;23.70;99.90
68051;DHT22;54839;51.364;7.246;2023-06-24T09:11:55;23.60;99.90
68051;DHT22;54839;51.364;7.246;2023-06-24T09:14:23;23.50;99.90
68051;DHT22;54839;51.364;7.246;2023-06-24T09:16:57;23.70;99.90
68051;DHT22;54839;51.364;7.246;2023-06-24T09:19:24;23.90;99.90
68051;DHT22;54839;51.364;7.246;2023-06-24T09:21:53;23.80;99.90
68051;DHT22;54839;51.364;7.246;2023-06-24T09:24:19;23.70;99.90
68051;DHT22;54839;51.364;7.246;2023-06-24T09:26:44;23.70;99.90
68051;DHT22;54839;51.364;7.246;2023-06-24T09:29:12;23.70;99.90
68051;DHT22;54839;51.364;7.246;2023-06-24T09:31:48;23.70;99.90
68051;DHT22;54839;51.364;7.246;2023-06-24T09:34:14;23.90;99.90
68051;DHT22;54839;51.364;7.246;2023-06-24T09:36:44;24.00;99.90
68051;DHT22;54839;51.364;7.246;2023-06-24T09:39:12;24.00;99.90
68051;DHT22;54839;51.364;7.246;2023-06-24T09:41:41;24.10;99.90
68051;DHT22;54839;51.364;7.246;2023-06-24T09:44:11;24.00;99.90
68051;DHT22;54839;51.364;7.246;2023-06-24T09:46:37;24.30;99.90
68051;DHT22;54839;51.364;7.246;2023-06-24T09:49:06;24.40;99.90
68051;DHT22;54839;51.364;7.246;2023-06-24T09:51:38;24.40;99.90
68051;DHT22;54839;51.364;7.246;2023-06-24T09:54:07;24.30;99.90
68051;DHT22;54839;51.364;7.246;2023-06-24T09:56:39;24.70;99.90
68051;DHT22;54839;51.364;7.246;2023-06-24T09:59:06;24.70;99.90
68051;DHT22;54839;51.364;7.246;2023-06-24T10:01:34;24.90;99.90
68051;DHT22;54839;51.364;7.246;2023-06-24T10:04:01;25.10;99.90
68051;DHT22;54839;51.364;7.246;2023-06-24T10:06:28;24.70;99.90
68051;DHT22;54839;51.364;7.246;2023-06-24T10:08:54;24.40;99.90
68051;DHT22;54839;51.364;7.246;2023-06-24T10:11:20;24.70;99.90
68051;DHT22;54839;51.364;7.246;2023-06-24T10:13:46;25.10;99.90
68051;DHT22;54839;51.364;7.246;2023-06-24T10:16:12;25.20;99.90
68051;DHT22;54839;51.364;7.246;2023-06-24T10:18:39;25.30;99.90
68051;DHT22;54839;51.364;7.246;2023-06-24T10:21:06;24.90;99.90
68051;DHT22;54839;51.364;7.246;2023-06-24T10:26:26;24.80;99.90
68051;DHT22;54839;51.364;7.246;2023-06-24T10:29:14;25.40;99.90
68051;DHT22;54839;51.364;7.246;2023-06-24T10:40:12;25.10;99.90
68051;DHT22;54839;51.364;7.246;2023-06-24T10:42:43;25.10;99.90
68051;DHT22;54839;51.364;7.246;2023-06-24T10:45:13;24.90;99.90
68051;DHT22;54839;51.364;7.246;2023-06-24T10:47:39;24.70;99.90
68051;DHT22;54839;51.364;7.246;2023-06-24T10:50:06;24.90;99.90
68051;DHT22;54839;51.364;7.246;2023-06-24T10:52:36;25.40;99.90
68051;DHT22;54839;51.364;7.246;2023-06-24T10:55:03;25.50;99.90
68051;DHT22;54839;51.364;7.246;2023-06-24T10:57:28;25.20;99.90
68051;DHT22;54839;51.364;7.246;2023-06-24T10:59:56;24.90;99.90
68051;DHT22;54839;51.364;7.246;2023-06-24T11:02:24;25.10;99.90
68051;DHT22;54839;51.364;7.246;2023-06-24T11:04:51;25.20;99.90
68051;DHT22;54839;51.364;7.246;2023-06-24T11:07:23;25.30;99.90
68051;DHT22;54839;51.364;7.246;2023-06-24T11:09:55;25.10;99.90
68051;DHT22;54839;51.364;7.246;2023-06-24T11:12:32;25.30;99.90
68051;DHT22;54839;51.364;7.246;2023-06-24T11:15:00;25.40;99.90
68051;DHT22;54839;51.364;7.246;2023-06-24T11:17:26;25.30;99.90
68051;DHT22;54839;51.364;7.246;2023-06-24T11:19:54;25.30;99.90
68051;DHT22;54839;51.364;7.246;2023-06-24T11:22:20;25.50;99.90
68051;DHT22;54839;51.364;7.246;2023-06-24T11:24:46;25.50;99.90
68051;DHT22;54839;51.364;7.246;2023-06-24T11:27:11;25.40;99.90
68051;DHT22;54839;51.364;7.246;2023-06-24T11:29:38;25.40;99.90
68051;DHT22;54839;51.364;7.246;2023-06-24T11:32:07;25.50;99.90
68051;DHT22;54839;51.364;7.246;2023-06-24T11:34:34;25.50;99.90
68051;DHT22;54839;51.364;7.246;2023-06-24T11:37:12;25.60;99.90
68051;DHT22;54839;51.364;7.246;2023-06-24T11:39:38;25.50;99.90
68051;DHT22;54839;51.364;7.246;2023-06-24T11:42:06;25.60;99.90
68051;DHT22;54839;51.364;7.246;2023-06-24T11:44:32;25.70;99.90
68051;DHT22;54839;51.364;7.246;2023-06-24T11:47:08;25.80;99.90
68051;DHT22;54839;51.364;7.246;2023-06-24T11:49:55;26.00;99.90
68051;DHT22;54839;51.364;7.246;2023-06-24T11:54:59;26.00;99.90
68051;DHT22;54839;51.364;7.246;2023-06-24T11:57:53;26.10;99.90
68051;DHT22;54839;51.364;7.246;2023-06-24T12:00:29;26.30;99.90
68051;DHT22;54839;51.364;7.246;2023-06-24T12:02:58;26.30;99.80
68051;DHT22;54839;51.364;7.246;2023-06-24T12:05:29;26.40;99.90
68051;DHT22;54839;51.364;7.246;2023-06-24T12:07:57;26.30;99.90
68051;DHT22;54839;51.364;7.246;2023-06-24T12:10:23;26.40;99.90
68051;DHT22;54839;51.364;7.246;2023-06-24T12:12:48;26.70;99.90
68051;DHT22;54839;51.364;7.246;2023-06-24T12:15:14;26.60;99.90
68051;DHT22;54839;51.364;7.246;2023-06-24T12:17:40;26.80;99.90
68051;DHT22;54839;51.364;7.246;2023-06-24T12:20:06;27.20;99.90
68051;DHT22;54839;51.364;7.246;2023-06-24T12:22:32;27.40;99.90
68051;DHT22;54839;51.364;7.246;2023-06-24T12:24:58;27.70;99.90
68051;DHT22;54839;51.364;7.246;2023-06-24T12:27:24;27.50;98.10
68051;DHT22;54839;51.364;7.246;2023-06-24T12:29:49;27.60;99.40
68051;DHT22;54839;51.364;7.246;2023-06-24T12:32:15;27.30;97.10
68051;DHT22;54839;51.364;7.246;2023-06-24T12:34:40;26.80;97.30
68051;DHT22;54839;51.364;7.246;2023-06-24T12:37:06;26.70;96.70
68051;DHT22;54839;51.364;7.246;2023-06-24T12:39:32;27.10;96.50
68051;DHT22;54839;51.364;7.246;2023-06-24T12:41:57;29.70;94.60
68051;DHT22;54839;51.364;7.246;2023-06-24T12:44:23;32.00;90.60
68051;DHT22;54839;51.364;7.246;2023-06-24T12:46:49;33.20;81.10
68051;DHT22;54839;51.364;7.246;2023-06-24T12:49:14;33.90;78.10
68051;DHT22;54839;51.364;7.246;2023-06-24T12:51:40;34.50;75.30
68051;DHT22;54839;51.364;7.246;2023-06-24T12:54:05;35.80;75.80
68051;DHT22;54839;51.364;7.246;2023-06-24T12:56:31;35.30;64.70
68051;DHT22;54839;51.364;7.246;2023-06-24T12:58:56;37.40;65.30
68051;DHT22;54839;51.364;7.246;2023-06-24T13:01:22;36.10;61.20
68051;DHT22;54839;51.364;7.246;2023-06-24T13:03:48;37.40;61.30
68051;DHT22;54839;51.364;7.246;2023-06-24T13:06:14;38.30;59.80
68051;DHT22;54839;51.364;7.246;2023-06-24T13:08:39;39.40;57.10
68051;DHT22;54839;51.364;7.246;2023-06-24T13:11:05;38.50;54.30
68051;DHT22;54839;51.364;7.246;2023-06-24T13:13:30;38.30;54.50
68051;DHT22;54839;51.364;7.246;2023-06-24T13:15:56;39.20;54.40
68051;DHT22;54839;51.364;7.246;2023-06-24T13:18:22;39.00;52.20
68051;DHT22;54839;51.364;7.246;2023-06-24T13:20:47;38.10;53.40
68051;DHT22;54839;51.364;7.246;2023-06-24T13:23:13;38.10;52.00
68051;DHT22;54839;51.364;7.246;2023-06-24T13:25:39;39.70;52.00
68051;DHT22;54839;51.364;7.246;2023-06-24T13:28:05;40.50;50.50
68051;DHT22;54839;51.364;7.246;2023-06-24T13:30:31;41.30;48.60
68051;DHT22;54839;51.364;7.246;2023-06-24T13:32:57;42.10;49.70
68051;DHT22;54839;51.364;7.246;2023-06-24T13:35:22;40.70;47.30
68051;DHT22;54839;51.364;7.246;2023-06-24T13:37:48;40.00;48.40
68051;DHT22;54839;51.364;7.246;2023-06-24T13:40:14;39.70;46.80
68051;DHT22;54839;51.364;7.246;2023-06-24T13:42:40;40.60;47.10
68051;DHT22;54839;51.364;7.246;2023-06-24T13:45:06;41.10;45.80
68051;DHT22;54839;51.364;7.246;2023-06-24T13:47:32;41.50;45.40
68051;DHT22;54839;51.364;7.246;2023-06-24T13:49:58;40.40;43.50
68051;DHT22;54839;51.364;7.246;2023-06-24T13:52:27;39.30;44.80
68051;DHT22;54839;51.364;7.246;2023-06-24T13:54:54;39.10;46.20
68051;DHT22;54839;51.364;7.246;2023-06-24T13:57:19;38.90;46.60
68051;DHT22;54839;51.364;7.246;2023-06-24T13:59:45;39.20;45.30
68051;DHT22;54839;51.364;7.246;2023-06-24T14:02:11;38.30;44.70
68051;DHT22;54839;51.364;7.246;2023-06-24T14:04:37;39.30;46.10
68051;DHT22;54839;51.364;7.246;2023-06-24T14:07:05;41.60;45.70
68051;DHT22;54839;51.364;7.246;2023-06-24T14:09:31;42.50;45.60
68051;DHT22;54839;51.364;7.246;2023-06-24T14:12:00;43.10;44.20
68051;DHT22;54839;51.364;7.246;2023-06-24T14:14:26;44.10;44.90
68051;DHT22;54839;51.364;7.246;2023-06-24T14:16:52;41.30;42.10
68051;DHT22;54839;51.364;7.246;2023-06-24T14:19:18;39.70;43.30
68051;DHT22;54839;51.364;7.246;2023-06-24T14:21:44;39.40;42.10
68051;DHT22;54839;51.364;7.246;2023-06-24T14:24:12;41.90;44.90
68051;DHT22;54839;51.364;7.246;2023-06-24T14:26:38;42.90;43.90
68051;DHT22;54839;51.364;7.246;2023-06-24T14:29:03;43.50;42.30
68051;DHT22;54839;51.364;7.246;2023-06-24T14:31:30;43.50;40.10
68051;DHT22;54839;51.364;7.246;2023-06-24T14:33:56;43.30;41.30
68051;DHT22;54839;51.364;7.246;2023-06-24T14:36:21;42.90;40.40
68051;DHT22;54839;51.364;7.246;2023-06-24T14:38:47;41.90;40.00
68051;DHT22;54839;51.364;7.246;2023-06-24T14:41:13;39.90;41.40
68051;DHT22;54839;51.364;7.246;2023-06-24T14:43:39;41.40;43.30
68051;DHT22;54839;51.364;7.246;2023-06-24T14:46:04;42.70;43.30
68051;DHT22;54839;51.364;7.246;2023-06-24T14:48:30;42.70;42.50
68051;DHT22;54839;51.364;7.246;2023-06-24T14:50:56;42.50;42.00
68051;DHT22;54839;51.364;7.246;2023-06-24T14:53:22;42.90;42.80
68051;DHT22;54839;51.364;7.246;2023-06-24T14:55:48;43.60;41.60
68051;DHT22;54839;51.364;7.246;2023-06-24T14:58:13;44.60;42.00
68051;DHT22;54839;51.364;7.246;2023-06-24T15:00:39;43.20;40.20
68051;DHT22;54839;51.364;7.246;2023-06-24T15:03:06;41.50;41.70
68051;DHT22;54839;51.364;7.246;2023-06-24T15:05:32;42.30;42.40
68051;DHT22;54839;51.364;7.246;2023-06-24T15:07:59;43.70;42.10
68051;DHT22;54839;51.364;7.246;2023-06-24T15:10:25;42.20;40.00
68051;DHT22;54839;51.364;7.246;2023-06-24T15:12:51;41.70;41.40
68051;DHT22;54839;51.364;7.246;2023-06-24T15:15:17;41.30;41.70
68051;DHT22;54839;51.364;7.246;2023-06-24T15:17:43;42.60;42.00
68051;DHT22;54839;51.364;7.246;2023-06-24T15:20:11;43.70;41.40
68051;DHT22;54839;51.364;7.246;2023-06-24T15:22:37;43.20;40.10
68051;DHT22;54839;51.364;7.246;2023-06-24T15:25:04;44.10;40.80
68051;DHT22;54839;51.364;7.246;2023-06-24T15:27:29;42.50;39.50
68051;DHT22;54839;51.364;7.246;2023-06-24T15:29:55;43.50;40.40
68051;DHT22;54839;51.364;7.246;2023-06-24T15:32:21;43.10;39.20
68051;DHT22;54839;51.364;7.246;2023-06-24T15:34:47;42.70;39.60
68051;DHT22;54839;51.364;7.246;2023-06-24T15:37:12;43.20;40.20
68051;DHT22;54839;51.364;7.246;2023-06-24T15:39:41;42.20;38.70
68051;DHT22;54839;51.364;7.246;2023-06-24T15:42:07;44.10;39.90
68051;DHT22;54839;51.364;7.246;2023-06-24T15:44:33;44.80;38.80
68051;DHT22;54839;51.364;7.246;2023-06-24T15:46:59;44.10;37.20
68051;DHT22;54839;51.364;7.246;2023-06-24T15:49:25;42.20;37.60